sensor_id;sensor_type;location;lat;lon;timestamp;temperature;humidity
69082;DHT22;56184;51.986;5.760;2023-02-11T00:00:06;7.30;99.60
69082;DHT22;56184;51.986;5.760;2023-02-11T00:02:32;7.30;99.70
69082;DHT22;56184;51.986;5.760;2023-02-11T00:04:58;7.30;99.90
69082;DHT22;56184;51.986;5.760;2023-02-11T00:07:28;7.30;99.70
69082;DHT22;56184;51.986;5.760;2023-02-11T00:09:53;7.30;99.90
69082;DHT22;56184;51.986;5.760;2023-02-11T00:12:19;7.30;99.70
69082;DHT22;56184;51.986;5.760;2023-02-11T00:14:44;7.30;99.80
69082;DHT22;56184;51.986;5.760;2023-02-11T00:17:10;7.30;99.70
69082;DHT22;56184;51.986;5.760;2023-02-11T00:19:36;7.30;99.90
69082;DHT22;56184;51.986;5.760;2023-02-11T00:22:01;7.20;99.90
69082;DHT22;56184;51.986;5.760;2023-02-11T00:24:27;7.20;99.90
69082;DHT22;56184;51.986;5.760;2023-02-11T00:26:54;7.30;99.70
69082;DHT22;56184;51.986;5.760;2023-02-11T00:29:20;7.20;99.90
69082;DHT22;56184;51.986;5.760;2023-02-11T00:31:45;7.20;99.90
69082;DHT22;56184;51.986;5.760;2023-02-11T00:34:11;7.10;99.90
69082;DHT22;56184;51.986;5.760;2023-02-11T00:36:36;7.10;99.90
69082;DHT22;56184;51.986;5.760;2023-02-11T00:39:02;7.10;99.90
69082;DHT22;56184;51.986;5.760;2023-02-11T00:41:28;7.10;99.90
69082;DHT22;56184;51.986;5.760;2023-02-11T00:43:54;7.10;99.90
69082;DHT22;56184;51.986;5.760;2023-02-11T00:46:20;7.10;99.90
69082;DHT22;56184;51.986;5.760;2023-02-11T00:48:46;7.20;99.90
69082;DHT22;56184;51.986;5.760;2023-02-11T00:51:12;7.20;99.90
69082;DHT22;56184;51.986;5.760;2023-02-11T00:53:38;7.20;99.90
69082;DHT22;56184;51.986;5.760;2023-02-11T00:56:04;7.20;99.90
69082;DHT22;56184;51.986;5.760;2023-02-11T00:58:30;7.10;99.90
69082;DHT22;56184;51.986;5.760;2023-02-11T01:00:56;7.10;99.90
69082;DHT22;56184;51.986;5.760;2023-02-11T01:03:22;7.20;99.90
69082;DHT22;56184;51.986;5.760;2023-02-11T01:05:47;7.20;99.90
69082;DHT22;56184;51.986;5.760;2023-02-11T01:08:13;7.20;99.90
69082;DHT22;56184;51.986;5.760;2023-02-11T01:10:38;7.20;99.90
69082;DHT22;56184;51.986;5.760;2023-02-11T01:13:04;7.20;99.90
69082;DHT22;56184;51.986;5.760;2023-02-11T01:15:31;7.20;99.90
69082;DHT22;56184;51.986;5.760;2023-02-11T01:17:57;7.20;99.90
69082;DHT22;56184;51.986;5.760;2023-02-11T01:20:25;7.20;99.90
69082;DHT22;56184;51.986;5.760;2023-02-11T01:22:51;7.20;99.90
69082;DHT22;56184;51.986;5.760;2023-02-11T01:25:17;7.10;99.90
69082;DHT22;56184;51.986;5.760;2023-02-11T01:27:43;7.10;99.90
69082;DHT22;56184;51.986;5.760;2023-02-11T01:30:11;7.00;99.90
69082;DHT22;56184;51.986;5.760;2023-02-11T01:32:37;7.00;99.90
69082;DHT22;56184;51.986;5.760;2023-02-11T01:35:03;7.00;99.90
69082;DHT22;56184;51.986;5.760;2023-02-11T01:37:28;7.10;99.90
69082;DHT22;56184;51.986;5.760;2023-02-11T01:39:54;7.00;99.90
69082;DHT22;56184;51.986;5.760;2023-02-11T01:42:21;6.90;99.90
69082;DHT22;56184;51.986;5.760;2023-02-11T01:44:52;7.00;99.90
69082;DHT22;56184;51.986;5.760;2023-02-11T01:47:19;7.00;99.90
69082;DHT22;56184;51.986;5.760;2023-02-11T01:49:48;6.90;99.90
69082;DHT22;56184;51.986;5.760;2023-02-11T01:52:25;7.00;99.90
69082;DHT22;56184;51.986;5.760;2023-02-11T01:54:54;6.90;99.90
69082;DHT22;56184;51.986;5.760;2023-02-11T01:57:43;6.90;99.90
69082;DHT22;56184;51.986;5.760;2023-02-11T02:00:29;6.90;99.90
69082;DHT22;56184;51.986;5.760;2023-02-11T02:03:11;6.90;99.90
69082;DHT22;56184;51.986;5.760;2023-02-11T02:06:18;6.90;99.90
69082;DHT22;56184;51.986;5.760;2023-02-11T02:08:55;7.00;99.90
69082;DHT22;56184;51.986;5.760;2023-02-11T02:11:22;7.00;99.90
69082;DHT22;56184;51.986;5.760;2023-02-11T02:13:48;7.10;99.90
69082;DHT22;56184;51.986;5.760;2023-02-11T02:16:18;7.00;99.90
69082;DHT22;56184;51.986;5.760;2023-02-11T02:24:54;7.00;99.90
69082;DHT22;56184;51.986;5.760;2023-02-11T02:27:49;7.00;99.90
69082;DHT22;56184;51.986;5.760;2023-02-11T02:33:28;6.90;99.90
69082;DHT22;56184;51.986;5.760;2023-02-11T02:38:43;6.90;99.90
69082;DHT22;56184;51.986;5.760;2023-02-11T02:41:14;7.00;99.90
69082;DHT22;56184;51.986;5.760;2023-02-11T02:43:46;7.00;99.90
69082;DHT22;56184;51.986;5.760;2023-02-11T02:46:21;6.90;99.90
69082;DHT22;56184;51.986;5.760;2023-02-11T02:48:48;6.90;99.90
69082;DHT22;56184;51.986;5.760;2023-02-11T02:57:11;6.90;99.90
69082;DHT22;56184;51.986;5.760;2023-02-11T03:02:57;6.80;99.90
69082;DHT22;56184;51.986;5.760;2023-02-11T03:05:44;6.90;99.90
69082;DHT22;56184;51.986;5.760;2023-02-11T03:08:22;6.80;99.90
69082;DHT22;56184;51.986;5.760;2023-02-11T03:10:51;6.80;99.90
69082;DHT22;56184;51.986;5.760;2023-02-11T03:13:19;6.80;99.90
69082;DHT22;56184;51.986;5.760;2023-02-11T03:15:50;6.90;99.90
69082;DHT22;56184;51.986;5.760;2023-02-11T03:18:18;6.90;99.90
69082;DHT22;56184;51.986;5.760;2023-02-11T03:20:52;6.90;99.90
69082;DHT22;56184;51.986;5.760;2023-02-11T03:23:32;6.80;99.90
69082;DHT22;56184;51.986;5.760;2023-02-11T03:26:08;6.80;99.90
69082;DHT22;56184;51.986;5.760;2023-02-11T03:28:43;6.80;99.90
69082;DHT22;56184;51.986;5.760;2023-02-11T03:31:17;6.80;99.90
69082;DHT22;56184;51.986;5.760;2023-02-11T03:36:43;6.80;99.90
69082;DHT22;56184;51.986;5.760;2023-02-11T03:39:15;6.80;99.90
69082;DHT22;56184;51.986;5.760;2023-02-11T03:41:43;6.80;99.90
69082;DHT22;56184;51.986;5.760;2023-02-11T03:44:13;6.80;99.90
69082;DHT22;56184;51.986;5.760;2023-02-11T03:46:43;6.80;99.90
69082;DHT22;56184;51.986;5.760;2023-02-11T03:49:12;6.80;99.90
69082;DHT22;56184;51.986;5.760;2023-02-11T03:51:40;6.80;99.90
69082;DHT22;56184;51.986;5.760;2023-02-11T03:54:09;6.90;99.90
69082;DHT22;56184;51.986;5.760;2023-02-11T03:56:42;6.90;99.90
69082;DHT22;56184;51.986;5.760;2023-02-11T03:59:10;6.80;99.90
69082;DHT22;56184;51.986;5.760;2023-02-11T04:01:35;6.80;99.90
69082;DHT22;56184;51.986;5.760;2023-02-11T04:04:01;6.80;99.90
69082;DHT22;56184;51.986;5.760;2023-02-11T04:06:27;6.80;99.90
69082;DHT22;56184;51.986;5.760;2023-02-11T04:08:52;6.90;99.90
69082;DHT22;56184;51.986;5.760;2023-02-11T04:11:18;7.00;99.90
69082;DHT22;56184;51.986;5.760;2023-02-11T04:13:43;7.00;99.90
69082;DHT22;56184;51.986;5.760;2023-02-11T04:16:09;6.90;99.90
69082;DHT22;56184;51.986;5.760;2023-02-11T04:18:34;6.90;99.90
69082;DHT22;56184;51.986;5.760;2023-02-11T04:21:00;6.80;99.90
69082;DHT22;56184;51.986;5.760;2023-02-11T04:23:25;6.80;99.90
69082;DHT22;56184;51.986;5.760;2023-02-11T04:25:51;6.80;99.90
69082;DHT22;56184;51.986;5.760;2023-02-11T04:28:16;6.80;99.90
69082;DHT22;56184;51.986;5.760;2023-02-11T04:30:42;6.80;99.90
69082;DHT22;56184;51.986;5.760;2023-02-11T04:33:08;6.80;99.90
69082;DHT22;56184;51.986;5.760;2023-02-11T04:35:33;6.90;99.90
69082;DHT22;56184;51.986;5.760;2023-02-11T04:37:59;7.00;99.90
69082;DHT22;56184;51.986;5.760;2023-02-11T04:40:24;6.90;99.90
69082;DHT22;56184;51.986;5.760;2023-02-11T04:42:50;6.90;99.90
69082;DHT22;56184;51.986;5.760;2023-02-11T04:45:17;6.90;99.90
69082;DHT22;56184;51.986;5.760;2023-02-11T04:47:42;6.80;99.90
69082;DHT22;56184;51.986;5.760;2023-02-11T04:50:09;6.80;99.90
69082;DHT22;56184;51.986;5.760;2023-02-11T04:52:35;6.90;99.90
69082;DHT22;56184;51.986;5.760;2023-02-11T04:55:00;6.90;99.90
69082;DHT22;56184;51.986;5.760;2023-02-11T04:57:26;6.90;99.90
69082;DHT22;56184;51.986;5.760;2023-02-11T04:59:51;6.90;99.90
69082;DHT22;56184;51.986;5.760;2023-02-11T05:02:17;6.90;99.90
69082;DHT22;56184;51.986;5.760;2023-02-11T05:04:43;6.80;99.90
69082;DHT22;56184;51.986;5.760;2023-02-11T05:07:08;6.80;99.90
69082;DHT22;56184;51.986;5.760;2023-02-11T05:09:34;7.00;99.90
69082;DHT22;56184;51.986;5.760;2023-02-11T05:11:59;6.90;99.90
69082;DHT22;56184;51.986;5.760;2023-02-11T05:14:25;6.90;99.90
69082;DHT22;56184;51.986;5.760;2023-02-11T05:16:51;6.90;99.90
69082;DHT22;56184;51.986;5.760;2023-02-11T05:19:16;7.00;99.90
69082;DHT22;56184;51.986;5.760;2023-02-11T05:21:42;7.00;99.90
69082;DHT22;56184;51.986;5.760;2023-02-11T05:24:07;6.90;99.90
69082;DHT22;56184;51.986;5.760;2023-02-11T05:26:33;6.80;99.90
69082;DHT22;56184;51.986;5.760;2023-02-11T05:28:59;6.90;99.90
69082;DHT22;56184;51.986;5.760;2023-02-11T05:31:24;6.90;99.90
69082;DHT22;56184;51.986;5.760;2023-02-11T05:33:50;6.90;99.90
69082;DHT22;56184;51.986;5.760;2023-02-11T05:36:16;6.90;99.90
69082;DHT22;56184;51.986;5.760;2023-02-11T05:38:41;7.00;99.90
69082;DHT22;56184;51.986;5.760;2023-02-11T05:41:09;6.90;99.90
69082;DHT22;56184;51.986;5.760;2023-02-11T05:43:35;6.90;99.90
69082;DHT22;56184;51.986;5.760;2023-02-11T05:46:02;6.90;99.90
69082;DHT22;56184;51.986;5.760;2023-02-11T05:48:27;7.00;99.90
69082;DHT22;56184;51.986;5.760;2023-02-11T05:50:53;7.00;99.90
69082;DHT22;56184;51.986;5.760;2023-02-11T05:53:18;7.00;99.90
69082;DHT22;56184;51.986;5.760;2023-02-11T05:55:44;7.00;99.90
69082;DHT22;56184;51.986;5.760;2023-02-11T05:58:10;7.00;99.90
69082;DHT22;56184;51.986;5.760;2023-02-11T06:00:36;6.90;99.90
69082;DHT22;56184;51.986;5.760;2023-02-11T06:03:01;7.00;99.90
69082;DHT22;56184;51.986;5.760;2023-02-11T06:05:29;7.10;99.90
69082;DHT22;56184;51.986;5.760;2023-02-11T06:07:54;7.00;99.90
69082;DHT22;56184;51.986;5.760;2023-02-11T06:10:20;6.90;99.90
69082;DHT22;56184;51.986;5.760;2023-02-11T06:12:46;6.90;99.90
69082;DHT22;56184;51.986;5.760;2023-02-11T06:15:11;6.90;99.90
69082;DHT22;56184;51.986;5.760;2023-02-11T06:17:37;6.90;99.90
69082;DHT22;56184;51.986;5.760;2023-02-11T06:20:05;6.90;99.90
69082;DHT22;56184;51.986;5.760;2023-02-11T06:22:31;7.00;99.90
69082;DHT22;56184;51.986;5.760;2023-02-11T06:24:57;6.90;99.90
69082;DHT22;56184;51.986;5.760;2023-02-11T06:27:22;6.90;99.90
69082;DHT22;56184;51.986;5.760;2023-02-11T06:29:48;6.90;99.90
69082;DHT22;56184;51.986;5.760;2023-02-11T06:32:14;6.90;99.90
69082;DHT22;56184;51.986;5.760;2023-02-11T06:34:40;6.90;99.90
69082;DHT22;56184;51.986;5.760;2023-02-11T06:37:06;6.90;99.90
69082;DHT22;56184;51.986;5.760;2023-02-11T06:39:32;6.80;99.90
69082;DHT22;56184;51.986;5.760;2023-02-11T06:41:57;6.90;99.90
69082;DHT22;56184;51.986;5.760;2023-02-11T06:44:23;6.90;99.90
69082;DHT22;56184;51.986;5.760;2023-02-11T06:46:49;6.90;99.90
69082;DHT22;56184;51.986;5.760;2023-02-11T06:49:14;6.90;99.90
69082;DHT22;56184;51.986;5.760;2023-02-11T06:51:40;6.90;99.90
69082;DHT22;56184;51.986;5.760;2023-02-11T06:54:06;6.90;99.90
69082;DHT22;56184;51.986;5.760;2023-02-11T06:56:32;6.90;99.90
69082;DHT22;56184;51.986;5.760;2023-02-11T06:58:59;6.90;99.90
69082;DHT22;56184;51.986;5.760;2023-02-11T07:01:26;6.90;99.90
69082;DHT22;56184;51.986;5.760;2023-02-11T07:03:52;6.90;99.90
69082;DHT22;56184;51.986;5.760;2023-02-11T07:06:20;6.90;99.90
69082;DHT22;56184;51.986;5.760;2023-02-11T07:08:46;6.80;99.90
69082;DHT22;56184;51.986;5.760;2023-02-11T07:11:14;7.00;99.90
69082;DHT22;56184;51.986;5.760;2023-02-11T07:13:40;6.90;99.90
69082;DHT22;56184;51.986;5.760;2023-02-11T07:16:08;7.00;99.90
69082;DHT22;56184;51.986;5.760;2023-02-11T07:18:34;7.00;99.90
69082;DHT22;56184;51.986;5.760;2023-02-11T07:21:03;7.00;99.90
69082;DHT22;56184;51.986;5.760;2023-02-11T07:23:30;7.00;99.90
69082;DHT22;56184;51.986;5.760;2023-02-11T07:25:56;7.00;99.90
69082;DHT22;56184;51.986;5.760;2023-02-11T07:28:21;6.90;99.90
69082;DHT22;56184;51.986;5.760;2023-02-11T07:30:47;6.90;99.90
69082;DHT22;56184;51.986;5.760;2023-02-11T07:33:12;7.00;99.90
69082;DHT22;56184;51.986;5.760;2023-02-11T07:35:38;7.00;99.90
69082;DHT22;56184;51.986;5.760;2023-02-11T07:38:03;7.00;99.90
69082;DHT22;56184;51.986;5.760;2023-02-11T07:40:29;7.00;99.90
69082;DHT22;56184;51.986;5.760;2023-02-11T07:42:56;7.10;99.90
69082;DHT22;56184;51.986;5.760;2023-02-11T07:45:21;7.10;99.90
69082;DHT22;56184;51.986;5.760;2023-02-11T07:47:47;7.00;99.90
69082;DHT22;56184;51.986;5.760;2023-02-11T07:50:12;7.10;99.90
69082;DHT22;56184;51.986;5.760;2023-02-11T07:52:38;7.10;99.90
69082;DHT22;56184;51.986;5.760;2023-02-11T07:55:04;7.00;99.90
69082;DHT22;56184;51.986;5.760;2023-02-11T07:57:29;7.00;99.90
69082;DHT22;56184;51.986;5.760;2023-02-11T07:59:55;7.00;99.90
69082;DHT22;56184;51.986;5.760;2023-02-11T08:02:21;7.10;99.90
69082;DHT22;56184;51.986;5.760;2023-02-11T08:04:47;7.10;99.90
69082;DHT22;56184;51.986;5.760;2023-02-11T08:07:15;7.20;99.90
69082;DHT22;56184;51.986;5.760;2023-02-11T08:09:41;7.10;99.90
69082;DHT22;56184;51.986;5.760;2023-02-11T08:12:06;7.20;99.90
69082;DHT22;56184;51.986;5.760;2023-02-11T08:14:32;7.20;99.90
69082;DHT22;56184;51.986;5.760;2023-02-11T08:16:57;7.20;99.90
69082;DHT22;56184;51.986;5.760;2023-02-11T08:19:23;7.20;99.90
69082;DHT22;56184;51.986;5.760;2023-02-11T08:21:49;7.20;99.90
69082;DHT22;56184;51.986;5.760;2023-02-11T08:24:14;7.20;99.90
69082;DHT22;56184;51.986;5.760;2023-02-11T08:26:40;7.20;99.90
69082;DHT22;56184;51.986;5.760;2023-02-11T08:29:09;7.20;99.90
69082;DHT22;56184;51.986;5.760;2023-02-11T08:31:39;7.30;99.90
69082;DHT22;56184;51.986;5.760;2023-02-11T08:34:05;7.30;99.90
69082;DHT22;56184;51.986;5.760;2023-02-11T08:36:33;7.30;99.90
69082;DHT22;56184;51.986;5.760;2023-02-11T08:39:00;7.30;99.90
69082;DHT22;56184;51.986;5.760;2023-02-11T08:41:28;7.40;99.90
69082;DHT22;56184;51.986;5.760;2023-02-11T08:43:54;7.50;99.90
69082;DHT22;56184;51.986;5.760;2023-02-11T08:46:20;7.60;99.90
69082;DHT22;56184;51.986;5.760;2023-02-11T08:48:46;7.60;99.90
69082;DHT22;56184;51.986;5.760;2023-02-11T08:51:17;7.60;99.90
69082;DHT22;56184;51.986;5.760;2023-02-11T08:53:46;7.60;99.90
69082;DHT22;56184;51.986;5.760;2023-02-11T08:56:12;7.60;99.90
69082;DHT22;56184;51.986;5.760;2023-02-11T08:58:38;7.70;99.90
69082;DHT22;56184;51.986;5.760;2023-02-11T09:01:12;7.70;99.90
69082;DHT22;56184;51.986;5.760;2023-02-11T09:03:38;7.80;99.90
69082;DHT22;56184;51.986;5.760;2023-02-11T09:06:05;7.90;99.90
69082;DHT22;56184;51.986;5.760;2023-02-11T09:08:34;7.90;99.90
69082;DHT22;56184;51.986;5.760;2023-02-11T09:11:00;8.00;99.90
69082;DHT22;56184;51.986;5.760;2023-02-11T09:13:26;8.10;99.90
69082;DHT22;56184;51.986;5.760;2023-02-11T09:15:52;8.10;99.90
69082;DHT22;56184;51.986;5.760;2023-02-11T09:18:17;8.00;99.90
69082;DHT22;56184;51.986;5.760;2023-02-11T09:20:43;8.00;99.90
69082;DHT22;56184;51.986;5.760;2023-02-11T09:23:09;8.10;99.90
69082;DHT22;56184;51.986;5.760;2023-02-11T09:25:34;8.00;99.90
69082;DHT22;56184;51.986;5.760;2023-02-11T09:28:03;8.00;99.90
69082;DHT22;56184;51.986;5.760;2023-02-11T09:30:28;8.10;99.90
69082;DHT22;56184;51.986;5.760;2023-02-11T09:32:54;8.10;99.90
69082;DHT22;56184;51.986;5.760;2023-02-11T09:35:19;8.30;99.90
69082;DHT22;56184;51.986;5.760;2023-02-11T09:37:45;8.30;99.90
69082;DHT22;56184;51.986;5.760;2023-02-11T09:40:12;8.30;99.90
69082;DHT22;56184;51.986;5.760;2023-02-11T09:43:03;8.40;99.90
69082;DHT22;56184;51.986;5.760;2023-02-11T09:45:30;8.40;99.90
69082;DHT22;56184;51.986;5.760;2023-02-11T09:48:04;8.50;99.90
69082;DHT22;56184;51.986;5.760;2023-02-11T09:50:39;8.50;99.90
69082;DHT22;56184;51.986;5.760;2023-02-11T09:55:41;8.60;99.90
69082;DHT22;56184;51.986;5.760;2023-02-11T09:58:25;8.60;99.90
69082;DHT22;56184;51.986;5.760;2023-02-11T10:01:07;8.70;99.90
69082;DHT22;56184;51.986;5.760;2023-02-11T10:11:34;8.80;99.90
69082;DHT22;56184;51.986;5.760;2023-02-11T10:17:31;8.90;99.90
69082;DHT22;56184;51.986;5.760;2023-02-11T10:22:59;8.90;99.90
69082;DHT22;56184;51.986;5.760;2023-02-11T10:25:38;9.00;99.90
69082;DHT22;56184;51.986;5.760;2023-02-11T10:28:16;9.20;99.90
69082;DHT22;56184;51.986;5.760;2023-02-11T10:31:27;9.40;99.90
69082;DHT22;56184;51.986;5.760;2023-02-11T10:36:21;9.50;99.90
69082;DHT22;56184;51.986;5.760;2023-02-11T10:38:48;9.60;99.90
69082;DHT22;56184;51.986;5.760;2023-02-11T10:41:21;9.60;99.90
69082;DHT22;56184;51.986;5.760;2023-02-11T10:43:51;9.50;99.90
69082;DHT22;56184;51.986;5.760;2023-02-11T10:46:21;9.70;99.90
69082;DHT22;56184;51.986;5.760;2023-02-11T10:48:50;9.70;99.90
69082;DHT22;56184;51.986;5.760;2023-02-11T10:51:28;10.00;99.90
69082;DHT22;56184;51.986;5.760;2023-02-11T10:56:31;9.60;99.90
69082;DHT22;56184;51.986;5.760;2023-02-11T10:59:03;10.10;99.90
69082;DHT22;56184;51.986;5.760;2023-02-11T11:01:49;10.10;99.90
69082;DHT22;56184;51.986;5.760;2023-02-11T11:07:19;10.10;99.90
69082;DHT22;56184;51.986;5.760;2023-02-11T11:10:33;10.10;99.90
69082;DHT22;56184;51.986;5.760;2023-02-11T11:12:47;10.20;99.60
69082;DHT22;56184;51.986;5.760;2023-02-11T11:15:14;10.10;99.50
69082;DHT22;56184;51.986;5.760;2023-02-11T11:17:43;10.10;99.60
69082;DHT22;56184;51.986;5.760;2023-02-11T11:22:44;10.00;99.40
69082;DHT22;56184;51.986;5.760;2023-02-11T11:25:27;10.10;99.90
69082;DHT22;56184;51.986;5.760;2023-02-11T11:27:56;10.00;99.90
69082;DHT22;56184;51.986;5.760;2023-02-11T11:30:27;10.00;99.90
69082;DHT22;56184;51.986;5.760;2023-02-11T11:32:55;10.10;99.90
69082;DHT22;56184;51.986;5.760;2023-02-11T11:35:30;10.20;99.90
69082;DHT22;56184;51.986;5.760;2023-02-11T11:38:00;10.20;99.00
69082;DHT22;56184;51.986;5.760;2023-02-11T11:40:29;10.50;99.10
69082;DHT22;56184;51.986;5.760;2023-02-11T11:45:32;10.80;98.10
69082;DHT22;56184;51.986;5.760;2023-02-11T11:48:47;10.80;98.60
69082;DHT22;56184;51.986;5.760;2023-02-11T11:50:59;10.70;98.40
69082;DHT22;56184;51.986;5.760;2023-02-11T11:53:35;10.80;98.20
69082;DHT22;56184;51.986;5.760;2023-02-11T11:56:19;10.80;98.30
69082;DHT22;56184;51.986;5.760;2023-02-11T11:58:45;10.80;97.70
69082;DHT22;56184;51.986;5.760;2023-02-11T12:07:15;11.70;96.20
69082;DHT22;56184;51.986;5.760;2023-02-11T12:20:15;11.90;95.00
69082;DHT22;56184;51.986;5.760;2023-02-11T12:25:29;12.20;95.90
69082;DHT22;56184;51.986;5.760;2023-02-11T12:31:30;12.80;94.20
69082;DHT22;56184;51.986;5.760;2023-02-11T12:50:17;13.10;93.50
69082;DHT22;56184;51.986;5.760;2023-02-11T12:53:02;13.30;94.40
69082;DHT22;56184;51.986;5.760;2023-02-11T12:55:36;13.50;93.50
69082;DHT22;56184;51.986;5.760;2023-02-11T12:58:03;13.20;91.80
69082;DHT22;56184;51.986;5.760;2023-02-11T13:00:41;13.10;92.30
69082;DHT22;56184;51.986;5.760;2023-02-11T13:03:21;13.30;94.20
69082;DHT22;56184;51.986;5.760;2023-02-11T13:05:51;13.40;91.90
69082;DHT22;56184;51.986;5.760;2023-02-11T13:08:39;13.40;91.70
69082;DHT22;56184;51.986;5.760;2023-02-11T13:11:11;13.20;91.70
69082;DHT22;56184;51.986;5.760;2023-02-11T13:13:53;13.10;92.80
69082;DHT22;56184;51.986;5.760;2023-02-11T13:16:37;13.00;93.40
69082;DHT22;56184;51.986;5.760;2023-02-11T13:21:48;12.70;93.80
69082;DHT22;56184;51.986;5.760;2023-02-11T13:24:39;12.60;94.70
69082;DHT22;56184;51.986;5.760;2023-02-11T13:27:10;12.30;94.20
69082;DHT22;56184;51.986;5.760;2023-02-11T13:32:13;12.40;94.40
69082;DHT22;56184;51.986;5.760;2023-02-11T13:37:25;12.30;93.70
69082;DHT22;56184;51.986;5.760;2023-02-11T13:42:30;12.40;94.40
69082;DHT22;56184;51.986;5.760;2023-02-11T13:44:57;12.30;94.70
69082;DHT22;56184;51.986;5.760;2023-02-11T13:47:32;12.30;95.20
69082;DHT22;56184;51.986;5.760;2023-02-11T13:49:59;12.20;95.20
69082;DHT22;56184;51.986;5.760;2023-02-11T13:52:29;12.30;96.00
69082;DHT22;56184;51.986;5.760;2023-02-11T13:55:18;12.20;95.60
69082;DHT22;56184;51.986;5.760;2023-02-11T14:11:42;12.00;95.40
69082;DHT22;56184;51.986;5.760;2023-02-11T14:19:40;12.40;95.20
69082;DHT22;56184;51.986;5.760;2023-02-11T14:22:24;12.30;94.00
69082;DHT22;56184;51.986;5.760;2023-02-11T14:25:02;12.40;94.30
69082;DHT22;56184;51.986;5.760;2023-02-11T14:35:37;12.10;94.40
69082;DHT22;56184;51.986;5.760;2023-02-11T14:41:10;12.00;94.20
69082;DHT22;56184;51.986;5.760;2023-02-11T14:43:44;11.80;94.50
69082;DHT22;56184;51.986;5.760;2023-02-11T14:46:14;11.80;94.50
69082;DHT22;56184;51.986;5.760;2023-02-11T14:48:45;11.80;94.80
69082;DHT22;56184;51.986;5.760;2023-02-11T14:51:18;11.90;95.20
69082;DHT22;56184;51.986;5.760;2023-02-11T14:53:51;11.70;94.60
69082;DHT22;56184;51.986;5.760;2023-02-11T14:56:22;11.70;95.10
69082;DHT22;56184;51.986;5.760;2023-02-11T14:58:53;11.70;95.10
69082;DHT22;56184;51.986;5.760;2023-02-11T15:01:34;11.60;95.30
69082;DHT22;56184;51.986;5.760;2023-02-11T15:04:05;11.60;95.40
69082;DHT22;56184;51.986;5.760;2023-02-11T15:06:35;11.60;95.50
69082;DHT22;56184;51.986;5.760;2023-02-11T15:09:15;11.40;94.80
69082;DHT22;56184;51.986;5.760;2023-02-11T15:11:44;11.50;95.30
69082;DHT22;56184;51.986;5.760;2023-02-11T15:14:22;11.60;95.30
69082;DHT22;56184;51.986;5.760;2023-02-11T15:16:49;11.50;94.50
69082;DHT22;56184;51.986;5.760;2023-02-11T15:19:29;11.60;94.80
69082;DHT22;56184;51.986;5.760;2023-02-11T15:21:56;11.60;95.00
69082;DHT22;56184;51.986;5.760;2023-02-11T15:24:28;11.50;94.50
69082;DHT22;56184;51.986;5.760;2023-02-11T15:27:02;11.50;95.00
69082;DHT22;56184;51.986;5.760;2023-02-11T15:29:39;11.50;94.30
69082;DHT22;56184;51.986;5.760;2023-02-11T15:34:34;11.60;94.30
69082;DHT22;56184;51.986;5.760;2023-02-11T15:37:02;11.60;94.40
69082;DHT22;56184;51.986;5.760;2023-02-11T15:39:39;11.50;94.50
69082;DHT22;56184;51.986;5.760;2023-02-11T15:44:44;11.70;93.90
69082;DHT22;56184;51.986;5.760;2023-02-11T15:47:20;11.70;93.90
69082;DHT22;56184;51.986;5.760;2023-02-11T15:49:47;11.80;93.60
69082;DHT22;56184;51.986;5.760;2023-02-11T15:52:22;11.80;93.70
69082;DHT22;56184;51.986;5.760;2023-02-11T15:54:48;11.70;92.90
69082;DHT22;56184;51.986;5.760;2023-02-11T15:57:14;11.60;93.20
69082;DHT22;56184;51.986;5.760;2023-02-11T15:59:46;11.60;93.30
69082;DHT22;56184;51.986;5.760;2023-02-11T16:05:07;11.50;93.50
69082;DHT22;56184;51.986;5.760;2023-02-11T16:10:03;11.30;94.20
69082;DHT22;56184;51.986;5.760;2023-02-11T16:12:28;11.30;94.20
69082;DHT22;56184;51.986;5.760;2023-02-11T16:14:54;11.20;94.40
69082;DHT22;56184;51.986;5.760;2023-02-11T16:17:26;11.10;94.50
69082;DHT22;56184;51.986;5.760;2023-02-11T16:19:53;11.20;95.00
69082;DHT22;56184;51.986;5.760;2023-02-11T16:22:25;11.10;95.40
69082;DHT22;56184;51.986;5.760;2023-02-11T16:24:53;11.10;94.90
69082;DHT22;56184;51.986;5.760;2023-02-11T16:29:52;10.90;95.10
69082;DHT22;56184;51.986;5.760;2023-02-11T16:32:23;10.90;95.00
69082;DHT22;56184;51.986;5.760;2023-02-11T16:34:50;10.80;94.90
69082;DHT22;56184;51.986;5.760;2023-02-11T16:37:16;10.70;95.10
69082;DHT22;56184;51.986;5.760;2023-02-11T16:39:42;10.70;95.60
69082;DHT22;56184;51.986;5.760;2023-02-11T16:42:10;10.50;95.70
69082;DHT22;56184;51.986;5.760;2023-02-11T16:44:35;10.40;95.80
69082;DHT22;56184;51.986;5.760;2023-02-11T16:47:01;10.30;96.10
69082;DHT22;56184;51.986;5.760;2023-02-11T16:49:33;10.30;96.10
69082;DHT22;56184;51.986;5.760;2023-02-11T16:52:01;10.20;96.50
69082;DHT22;56184;51.986;5.760;2023-02-11T16:54:29;10.20;97.00
69082;DHT22;56184;51.986;5.760;2023-02-11T16:56:55;10.20;96.70
69082;DHT22;56184;51.986;5.760;2023-02-11T16:59:21;10.10;96.60
69082;DHT22;56184;51.986;5.760;2023-02-11T17:01:47;10.10;97.20
69082;DHT22;56184;51.986;5.760;2023-02-11T17:04:20;10.00;96.50
69082;DHT22;56184;51.986;5.760;2023-02-11T17:06:46;10.00;97.20
69082;DHT22;56184;51.986;5.760;2023-02-11T17:09:23;9.80;97.20
69082;DHT22;56184;51.986;5.760;2023-02-11T17:11:49;9.80;97.50
69082;DHT22;56184;51.986;5.760;2023-02-11T17:14:17;9.70;97.80
69082;DHT22;56184;51.986;5.760;2023-02-11T17:16:43;9.60;98.50
69082;DHT22;56184;51.986;5.760;2023-02-11T17:19:15;9.60;98.00
69082;DHT22;56184;51.986;5.760;2023-02-11T17:21:42;9.50;98.40
69082;DHT22;56184;51.986;5.760;2023-02-11T17:24:08;9.50;98.40
69082;DHT22;56184;51.986;5.760;2023-02-11T17:26:33;9.50;98.40
69082;DHT22;56184;51.986;5.760;2023-02-11T17:29:03;9.40;98.40
69082;DHT22;56184;51.986;5.760;2023-02-11T17:31:29;9.40;98.60
69082;DHT22;56184;51.986;5.760;2023-02-11T17:33:55;9.40;98.40
69082;DHT22;56184;51.986;5.760;2023-02-11T17:36:20;9.30;98.60
69082;DHT22;56184;51.986;5.760;2023-02-11T17:38:46;9.20;98.90
69082;DHT22;56184;51.986;5.760;2023-02-11T17:41:11;9.20;99.00
69082;DHT22;56184;51.986;5.760;2023-02-11T17:43:37;9.20;99.10
69082;DHT22;56184;51.986;5.760;2023-02-11T17:46:06;9.20;99.20
69082;DHT22;56184;51.986;5.760;2023-02-11T17:48:32;9.20;99.00
69082;DHT22;56184;51.986;5.760;2023-02-11T17:50:58;9.20;99.10
69082;DHT22;56184;51.986;5.760;2023-02-11T17:53:23;9.20;99.20
69082;DHT22;56184;51.986;5.760;2023-02-11T17:55:49;9.20;99.00
69082;DHT22;56184;51.986;5.760;2023-02-11T17:58:15;9.10;99.10
69082;DHT22;56184;51.986;5.760;2023-02-11T18:00:41;9.10;99.20
69082;DHT22;56184;51.986;5.760;2023-02-11T18:03:07;9.10;99.60
69082;DHT22;56184;51.986;5.760;2023-02-11T18:05:35;9.10;99.40
69082;DHT22;56184;51.986;5.760;2023-02-11T18:08:02;9.10;99.40
69082;DHT22;56184;51.986;5.760;2023-02-11T18:10:28;9.10;99.50
69082;DHT22;56184;51.986;5.760;2023-02-11T18:12:54;9.10;99.60
69082;DHT22;56184;51.986;5.760;2023-02-11T18:15:20;9.10;99.70
69082;DHT22;56184;51.986;5.760;2023-02-11T18:17:46;9.00;99.40
69082;DHT22;56184;51.986;5.760;2023-02-11T18:20:12;9.00;99.60